createdAt,value
2022-09-24T00:00:57.808Z,0.00
2022-09-24T00:01:57.805Z,0.00
2022-09-24T00:02:57.831Z,0.00
2022-09-24T00:03:57.739Z,0.00
2022-09-24T00:04:57.747Z,0.00
2022-09-24T00:05:57.720Z,0.00
2022-09-24T00:06:57.729Z,0.00
2022-09-24T00:07:57.699Z,0.00
2022-09-24T00:08:57.689Z,0.00
2022-09-24T00:09:57.678Z,0.00
2022-09-24T00:10:57.676Z,0.00
2022-09-24T00:11:57.649Z,0.00
2022-09-24T00:12:57.668Z,0.00
2022-09-24T00:13:57.628Z,0.00
2022-09-24T00:14:57.618Z,0.00
2022-09-24T00:15:57.665Z,0.00
2022-09-24T00:16:57.596Z,0.00
2022-09-24T00:17:57.609Z,0.00
2022-09-24T00:18:57.569Z,0.00
2022-09-24T00:19:57.559Z,0.00
2022-09-24T00:20:57.556Z,0.00
2022-09-24T00:21:57.539Z,0.00
2022-09-24T00:22:57.530Z,0.00
2022-09-24T00:23:57.540Z,0.00
2022-09-24T00:24:57.505Z,0.00
2022-09-24T00:25:57.489Z,0.00
2022-09-24T00:26:57.481Z,0.00
2022-09-24T00:27:57.481Z,0.00
2022-09-24T00:28:57.461Z,0.00
2022-09-24T00:29:57.469Z,0.00
2022-09-24T00:30:57.471Z,0.00
2022-09-24T00:31:57.485Z,0.00
2022-09-24T00:32:57.410Z,0.00
2022-09-24T00:33:57.401Z,0.00
2022-09-24T00:34:57.389Z,0.00
2022-09-24T00:35:57.400Z,0.00
2022-09-24T00:36:57.379Z,0.00
2022-09-24T00:37:57.358Z,0.00
2022-09-24T00:38:57.343Z,0.00
2022-09-24T00:39:57.334Z,0.00
2022-09-24T00:40:57.319Z,0.00
2022-09-24T00:41:57.330Z,0.00
2022-09-24T00:42:57.290Z,0.00
2022-09-24T00:43:57.318Z,0.00
2022-09-24T00:44:57.280Z,0.00
2022-09-24T00:45:57.268Z,0.00
2022-09-24T00:46:57.327Z,0.00
2022-09-24T00:47:57.250Z,0.00
2022-09-24T00:48:57.237Z,0.00
2022-09-24T00:49:57.220Z,0.00
2022-09-24T00:50:57.217Z,0.00
2022-09-24T00:51:57.191Z,0.00
2022-09-24T00:52:57.211Z,0.00
2022-09-24T00:53:57.169Z,0.00
2022-09-24T00:54:57.161Z,0.00
2022-09-24T00:55:57.154Z,0.00
2022-09-24T00:56:57.137Z,0.00
2022-09-24T00:57:57.132Z,0.00
2022-09-24T00:58:57.141Z,0.00
2022-09-24T00:59:57.099Z,0.00
2022-09-24T01:00:57.186Z,0.00
2022-09-24T01:01:57.128Z,0.00
2022-09-24T01:02:57.060Z,0.00
2022-09-24T01:03:57.059Z,0.00
2022-09-24T01:04:57.063Z,0.00
2022-09-24T01:05:57.029Z,0.00
2022-09-24T01:06:57.021Z,0.00
2022-09-24T01:07:57.009Z,0.00
2022-09-24T01:08:56.989Z,0.00
2022-09-24T01:09:56.991Z,0.00
2022-09-24T01:10:57.000Z,0.00
2022-09-24T01:11:56.967Z,0.00
2022-09-24T01:12:56.950Z,0.00
2022-09-24T01:13:56.940Z,0.00
2022-09-24T01:14:56.928Z,0.00
2022-09-24T01:15:56.958Z,0.00
2022-09-24T01:16:56.950Z,0.00
2022-09-24T01:17:56.889Z,0.00
2022-09-24T01:18:56.879Z,0.00
2022-09-24T01:19:56.870Z,0.00
2022-09-24T01:20:56.858Z,0.00
2022-09-24T01:21:56.848Z,0.00
2022-09-24T01:22:56.860Z,0.00
2022-09-24T01:23:56.850Z,0.00
2022-09-24T01:24:56.810Z,0.00
2022-09-24T01:25:56.807Z,0.00
2022-09-24T01:26:56.789Z,0.00
2022-09-24T01:27:56.789Z,0.00
2022-09-24T01:28:56.779Z,0.00
2022-09-24T01:29:56.759Z,0.00
2022-09-24T01:30:56.748Z,0.00
2022-09-24T01:31:56.813Z,0.00
2022-09-24T01:32:56.718Z,0.00
2022-09-24T01:33:56.710Z,0.00
2022-09-24T01:34:56.719Z,0.00
2022-09-24T01:35:56.710Z,0.00
2022-09-24T01:36:56.670Z,0.00
2022-09-24T01:37:56.659Z,0.00
2022-09-24T01:38:56.661Z,0.00
2022-09-24T01:39:56.639Z,0.00
2022-09-24T01:40:56.736Z,0.00
2022-09-24T01:41:56.620Z,0.00
2022-09-24T01:42:56.599Z,0.00
2022-09-24T01:43:56.599Z,0.00
2022-09-24T01:44:56.579Z,0.00
2022-09-24T01:45:56.594Z,0.00
2022-09-24T01:47:03.670Z,0.00
2022-09-24T01:47:58.192Z,0.00
2022-09-24T01:48:56.532Z,0.00
2022-09-24T01:49:56.530Z,0.00
2022-09-24T01:50:56.522Z,0.00
2022-09-24T01:51:56.529Z,0.00
2022-09-24T01:52:56.491Z,0.00
2022-09-24T01:53:56.481Z,0.00
2022-09-24T01:54:56.462Z,0.00
2022-09-24T01:55:56.463Z,0.00
2022-09-24T01:56:56.445Z,0.00
2022-09-24T01:57:56.452Z,0.00
2022-09-24T01:58:56.423Z,0.00
2022-09-24T01:59:56.412Z,0.00
2022-09-24T02:00:56.450Z,0.00
2022-09-24T02:01:56.491Z,0.00
2022-09-24T02:02:56.404Z,0.00
2022-09-24T02:03:56.361Z,0.00
2022-09-24T02:04:56.351Z,0.00
2022-09-24T02:05:56.361Z,0.00
2022-09-24T02:06:56.329Z,0.00
2022-09-24T02:07:56.320Z,0.00
2022-09-24T02:08:56.332Z,0.00
2022-09-24T02:09:56.300Z,0.00
2022-09-24T02:10:56.281Z,0.00
2022-09-24T02:11:56.275Z,0.00
2022-09-24T02:12:56.261Z,0.00
2022-09-24T02:13:56.263Z,0.00
2022-09-24T02:14:56.261Z,0.00
2022-09-24T02:15:56.270Z,0.00
2022-09-24T02:16:56.211Z,0.00
2022-09-24T02:17:56.201Z,0.00
2022-09-24T02:18:56.191Z,0.00
2022-09-24T02:19:56.182Z,0.00
2022-09-24T02:20:56.181Z,0.00
2022-09-24T02:21:56.162Z,0.00
2022-09-24T02:22:56.152Z,0.00
2022-09-24T02:23:56.141Z,0.00
2022-09-24T02:24:56.121Z,0.00
2022-09-24T02:25:56.141Z,0.00
2022-09-24T02:26:56.100Z,0.00
2022-09-24T02:27:56.091Z,0.00
2022-09-24T02:28:56.071Z,0.00
2022-09-24T02:29:56.072Z,0.00
2022-09-24T02:30:56.162Z,0.00
2022-09-24T02:31:56.198Z,0.00
2022-09-24T02:32:56.030Z,0.00
2022-09-24T02:33:56.029Z,0.00
2022-09-24T02:34:56.001Z,0.00
2022-09-24T02:35:56.002Z,0.00
2022-09-24T02:36:55.984Z,0.00
2022-09-24T02:37:56.022Z,0.00
2022-09-24T02:38:55.960Z,0.00
2022-09-24T02:39:55.952Z,0.00
2022-09-24T02:40:56.035Z,0.00
2022-09-24T02:41:55.930Z,0.00
2022-09-24T02:42:55.910Z,0.00
2022-09-24T02:43:55.923Z,0.00
2022-09-24T02:44:55.893Z,0.00
2022-09-24T02:45:55.880Z,0.00
2022-09-24T02:46:56.007Z,0.00
2022-09-24T02:47:55.862Z,0.00
2022-09-24T02:48:55.869Z,0.00
2022-09-24T02:49:55.831Z,0.00
2022-09-24T02:50:55.820Z,0.00
2022-09-24T02:51:55.821Z,0.00
2022-09-24T02:52:55.798Z,0.00
2022-09-24T02:53:55.790Z,0.00
2022-09-24T02:54:55.799Z,0.00
2022-09-24T02:55:55.769Z,0.00
2022-09-24T02:56:55.750Z,0.00
2022-09-24T02:57:55.745Z,0.00
2022-09-24T02:58:55.733Z,0.00
2022-09-24T02:59:55.722Z,0.00
2022-09-24T03:00:55.730Z,0.00
2022-09-24T03:01:55.787Z,0.00
2022-09-24T03:02:55.741Z,0.00
2022-09-24T03:03:55.671Z,0.00
2022-09-24T03:04:55.662Z,0.00
2022-09-24T03:05:55.650Z,0.00
2022-09-24T03:06:55.659Z,0.00
2022-09-24T03:07:55.631Z,0.00
2022-09-24T03:08:55.612Z,0.00
2022-09-24T03:09:55.622Z,0.00
2022-09-24T03:10:55.591Z,0.00
2022-09-24T03:11:55.592Z,0.00
2022-09-24T03:12:55.599Z,0.00
2022-09-24T03:13:55.572Z,0.00
2022-09-24T03:14:55.543Z,0.00
2022-09-24T03:15:55.624Z,0.00
2022-09-24T03:16:55.530Z,0.00
2022-09-24T03:17:55.520Z,0.00
2022-09-24T03:18:55.525Z,0.00
2022-09-24T03:19:55.490Z,0.00
2022-09-24T03:20:55.485Z,0.00
2022-09-24T03:21:55.470Z,0.00
2022-09-24T03:22:55.459Z,0.00
2022-09-24T03:23:55.449Z,0.00
2022-09-24T03:24:55.509Z,0.00
2022-09-24T03:25:56.193Z,0.00
2022-09-24T03:26:55.409Z,0.00
2022-09-24T03:27:55.405Z,0.00
2022-09-24T03:28:55.382Z,0.00
2022-09-24T03:29:55.379Z,0.00
2022-09-24T03:30:55.424Z,0.00
2022-09-24T03:31:55.407Z,0.00
2022-09-24T03:32:55.339Z,0.00
2022-09-24T03:33:55.333Z,0.00
2022-09-24T03:34:55.320Z,0.00
2022-09-24T03:35:55.310Z,0.00
2022-09-24T03:36:55.320Z,0.00
2022-09-24T03:37:55.291Z,0.00
2022-09-24T03:38:55.279Z,0.00
2022-09-24T03:39:55.270Z,0.00
2022-09-24T03:40:55.321Z,0.00
2022-09-24T03:41:55.240Z,0.00
2022-09-24T03:42:55.243Z,0.00
2022-09-24T03:43:55.222Z,0.00
2022-09-24T03:44:55.210Z,0.00
2022-09-24T03:45:55.202Z,0.00
2022-09-24T03:46:55.245Z,0.00
2022-09-24T03:47:55.193Z,0.00
2022-09-24T03:48:55.159Z,0.00
2022-09-24T03:49:55.150Z,0.00
2022-09-24T03:50:55.129Z,0.00
2022-09-24T03:51:55.128Z,0.00
2022-09-24T03:52:55.109Z,0.00
2022-09-24T03:53:55.131Z,0.00
2022-09-24T03:54:55.091Z,0.00
2022-09-24T03:55:55.080Z,0.00
2022-09-24T03:56:55.069Z,0.00
2022-09-24T03:57:55.059Z,0.00
2022-09-24T03:58:55.051Z,0.00
2022-09-24T03:59:55.057Z,0.00
2022-09-24T04:00:55.021Z,0.00
2022-09-24T04:01:55.044Z,0.00
2022-09-24T04:02:55.051Z,0.00
2022-09-24T04:03:54.989Z,0.00
2022-09-24T04:04:55.763Z,0.00
2022-09-24T04:05:54.989Z,0.00
2022-09-24T04:06:54.968Z,0.00
2022-09-24T04:07:54.961Z,0.00
2022-09-24T04:08:54.947Z,0.00
2022-09-24T04:09:54.928Z,0.00
2022-09-24T04:10:54.931Z,0.00
2022-09-24T04:11:54.898Z,0.00
2022-09-24T04:12:54.888Z,0.00
2022-09-24T04:13:54.879Z,0.00
2022-09-24T04:14:54.870Z,0.00
2022-09-24T04:15:54.942Z,0.00
2022-09-24T04:16:54.860Z,0.00
2022-09-24T04:17:54.836Z,0.00
2022-09-24T04:18:54.818Z,0.00
2022-09-24T04:19:54.811Z,0.00
2022-09-24T04:20:54.798Z,0.00
2022-09-24T04:21:54.809Z,0.00
2022-09-24T04:22:54.779Z,0.00
2022-09-24T04:23:54.769Z,0.00
2022-09-24T04:24:54.749Z,0.00
2022-09-24T04:25:54.747Z,0.00
2022-09-24T04:26:54.735Z,0.00
2022-09-24T04:27:54.748Z,0.00
2022-09-24T04:28:54.708Z,0.00
2022-09-24T04:29:54.688Z,0.00
2022-09-24T04:30:54.732Z,0.00
2022-09-24T04:31:54.739Z,0.00
2022-09-24T04:32:54.667Z,0.00
2022-09-24T04:33:54.671Z,0.00
2022-09-24T04:34:54.639Z,0.00
2022-09-24T04:35:54.629Z,0.00
2022-09-24T04:36:54.617Z,0.00
2022-09-24T04:37:54.607Z,0.00
2022-09-24T04:38:54.598Z,0.00
2022-09-24T04:39:54.610Z,0.00
2022-09-24T04:40:54.629Z,0.00
2022-09-24T04:41:54.560Z,0.00
2022-09-24T04:42:54.558Z,0.00
2022-09-24T04:43:54.547Z,0.00
2022-09-24T04:44:56.163Z,0.00
2022-09-24T04:45:54.529Z,0.00
2022-09-24T04:46:54.600Z,0.00
2022-09-24T04:47:54.488Z,0.00
2022-09-24T04:48:54.498Z,0.00
2022-09-24T04:49:54.468Z,0.00
2022-09-24T04:50:54.488Z,0.00
2022-09-24T04:51:54.478Z,0.00
2022-09-24T04:52:54.456Z,0.00
2022-09-24T04:53:54.426Z,0.00
2022-09-24T04:54:54.419Z,0.00
2022-09-24T04:55:54.405Z,0.00
2022-09-24T04:56:54.416Z,0.00
2022-09-24T04:57:54.396Z,0.00
2022-09-24T04:58:54.371Z,0.00
2022-09-24T04:59:54.357Z,0.00
2022-09-24T05:00:54.357Z,0.00
2022-09-24T05:01:54.473Z,0.00
2022-09-24T05:02:54.498Z,0.00
2022-09-24T05:03:54.309Z,0.00
2022-09-24T05:04:54.297Z,0.00
2022-09-24T05:05:54.293Z,5.62
2022-09-24T05:06:54.278Z,5.62
2022-09-24T05:07:54.266Z,5.62
2022-09-24T05:08:54.277Z,5.62
2022-09-24T05:09:54.245Z,5.62
2022-09-24T05:10:54.237Z,11.25
2022-09-24T05:11:54.219Z,11.25
2022-09-24T05:12:54.208Z,11.25
2022-09-24T05:13:54.220Z,16.88
2022-09-24T05:14:54.187Z,16.88
2022-09-24T05:15:54.238Z,16.88
2022-09-24T05:16:54.166Z,22.50
2022-09-24T05:17:54.148Z,22.50
2022-09-24T05:18:54.148Z,22.50
2022-09-24T05:19:54.148Z,22.50
2022-09-24T05:20:54.117Z,28.12
2022-09-24T05:21:54.105Z,28.12
2022-09-24T05:22:54.097Z,33.75
2022-09-24T05:23:54.088Z,33.75
2022-09-24T05:24:54.076Z,33.75
2022-09-24T05:25:54.078Z,39.38
2022-09-24T05:26:54.056Z,39.38
2022-09-24T05:27:54.041Z,45.00
2022-09-24T05:28:54.027Z,45.00
2022-09-24T05:29:54.016Z,50.62
2022-09-24T05:30:54.043Z,56.25
2022-09-24T05:31:54.007Z,61.88
2022-09-24T05:32:53.979Z,67.50
2022-09-24T05:33:53.969Z,73.12
2022-09-24T05:34:53.959Z,78.75
2022-09-24T05:35:53.951Z,84.38
2022-09-24T05:36:53.957Z,90.00
2022-09-24T05:37:54.089Z,90.00
2022-09-24T05:38:53.915Z,95.62
2022-09-24T05:39:53.896Z,101.25
2022-09-24T05:40:53.930Z,101.25
2022-09-24T05:41:53.876Z,106.88
2022-09-24T05:42:53.887Z,112.50
2022-09-24T05:43:53.858Z,112.50
2022-09-24T05:44:53.846Z,123.75
2022-09-24T05:45:53.836Z,129.38
2022-09-24T05:46:53.871Z,135.00
2022-09-24T05:47:53.808Z,140.62
2022-09-24T05:48:53.826Z,146.25
2022-09-24T05:49:53.787Z,146.25
2022-09-24T05:50:53.776Z,146.25
2022-09-24T05:51:53.766Z,146.25
2022-09-24T05:52:53.756Z,146.25
2022-09-24T05:53:53.745Z,146.25
2022-09-24T05:54:53.746Z,146.25
2022-09-24T05:55:53.716Z,146.25
2022-09-24T05:56:53.706Z,146.25
2022-09-24T05:57:53.697Z,146.25
2022-09-24T05:58:53.686Z,151.88
2022-09-24T05:59:53.696Z,157.50
2022-09-24T06:00:53.665Z,157.50
2022-09-24T06:01:53.658Z,163.12
2022-09-24T06:02:53.669Z,168.75
2022-09-24T06:03:53.676Z,174.38
2022-09-24T06:04:53.619Z,185.62
2022-09-24T06:05:53.626Z,191.25
2022-09-24T06:06:53.597Z,202.50
2022-09-24T06:07:53.577Z,213.75
2022-09-24T06:08:53.579Z,225.00
2022-09-24T06:09:53.563Z,236.25
2022-09-24T06:10:53.547Z,247.50
2022-09-24T06:11:53.557Z,253.12
2022-09-24T06:12:53.524Z,258.75
2022-09-24T06:13:53.556Z,264.38
2022-09-24T06:14:53.505Z,270.00
2022-09-24T06:15:53.535Z,275.62
2022-09-24T06:16:53.485Z,286.88
2022-09-24T06:17:53.497Z,298.12
2022-09-24T06:18:53.457Z,303.75
2022-09-24T06:19:53.446Z,309.38
2022-09-24T06:20:53.436Z,337.50
2022-09-24T06:21:53.423Z,348.75
2022-09-24T06:22:53.434Z,337.50
2022-09-24T06:23:53.405Z,376.88
2022-09-24T06:24:53.387Z,472.50
2022-09-24T06:25:53.377Z,517.50
2022-09-24T06:26:53.366Z,433.12
2022-09-24T06:27:53.353Z,399.38
2022-09-24T06:28:53.388Z,517.50
2022-09-24T06:29:53.326Z,556.88
2022-09-24T06:30:53.334Z,551.25
2022-09-24T06:31:53.314Z,466.88
2022-09-24T06:32:53.298Z,506.25
2022-09-24T06:33:53.293Z,556.88
2022-09-24T06:34:56.902Z,680.62
2022-09-24T06:35:54.264Z,495.00
2022-09-24T06:36:53.247Z,466.88
2022-09-24T06:37:53.236Z,630.00
2022-09-24T06:38:53.228Z,776.25
2022-09-24T06:39:53.236Z,770.62
2022-09-24T06:40:53.249Z,646.88
2022-09-24T06:41:53.188Z,523.12
2022-09-24T06:42:53.184Z,585.00
2022-09-24T06:43:53.176Z,748.12
2022-09-24T06:44:53.159Z,540.00
2022-09-24T06:45:53.158Z,720.00
2022-09-24T06:46:53.174Z,877.50
2022-09-24T06:47:53.119Z,534.38
2022-09-24T06:48:53.115Z,855.00
2022-09-24T06:49:53.097Z,939.38
2022-09-24T06:50:53.115Z,922.50
2022-09-24T06:51:53.076Z,1085.62
2022-09-24T06:52:53.066Z,1215.00
2022-09-24T06:53:53.066Z,1181.25
2022-09-24T06:54:53.047Z,720.00
2022-09-24T06:55:53.046Z,894.38
2022-09-24T06:56:53.050Z,793.12
2022-09-24T06:57:53.015Z,804.38
2022-09-24T06:58:52.998Z,720.00
2022-09-24T06:59:52.986Z,691.88
2022-09-24T07:00:53.028Z,720.00
2022-09-24T07:01:53.043Z,624.38
2022-09-24T07:02:52.967Z,551.25
2022-09-24T07:03:52.948Z,635.62
2022-09-24T07:04:52.929Z,973.12
2022-09-24T07:05:52.918Z,1305.00
2022-09-24T07:06:52.909Z,1271.25
2022-09-24T07:07:52.910Z,1198.12
2022-09-24T07:08:52.878Z,1378.12
2022-09-24T07:09:52.870Z,1192.50
2022-09-24T07:10:52.867Z,1203.75
2022-09-24T07:11:52.849Z,1220.62
2022-09-24T07:12:52.838Z,1141.88
2022-09-24T07:13:52.861Z,984.38
2022-09-24T07:14:52.820Z,1338.75
2022-09-24T07:15:52.919Z,1524.38
2022-09-24T07:16:52.789Z,1575.00
2022-09-24T07:17:52.779Z,1580.62
2022-09-24T07:18:52.769Z,1552.50
2022-09-24T07:19:52.771Z,1535.62
2022-09-24T07:20:52.759Z,1541.25
2022-09-24T07:21:53.531Z,1535.62
2022-09-24T07:22:52.739Z,1558.12
2022-09-24T07:23:57.783Z,1597.50
2022-09-24T07:24:53.722Z,1597.50
2022-09-24T07:25:52.688Z,1608.75
2022-09-24T07:26:52.680Z,1603.12
2022-09-24T07:27:52.661Z,1608.75
2022-09-24T07:28:52.661Z,1608.75
2022-09-24T07:29:52.640Z,1620.00
2022-09-24T07:30:52.691Z,1732.50
2022-09-24T07:31:52.623Z,1738.12
2022-09-24T07:32:52.619Z,1648.12
2022-09-24T07:33:52.604Z,1665.00
2022-09-24T07:34:52.593Z,1704.38
2022-09-24T07:35:52.578Z,1586.25
2022-09-24T07:36:52.590Z,1603.12
2022-09-24T07:37:52.556Z,652.50
2022-09-24T07:38:52.542Z,1800.00
2022-09-24T07:39:52.523Z,1710.00
2022-09-24T07:40:52.567Z,1715.62
2022-09-24T07:41:52.504Z,1530.00
2022-09-24T07:42:52.514Z,1693.12
2022-09-24T07:43:52.496Z,1794.38
2022-09-24T07:44:52.477Z,1839.38
2022-09-24T07:45:52.456Z,1828.12
2022-09-24T07:46:52.517Z,1805.62
2022-09-24T07:47:52.454Z,1625.62
2022-09-24T07:48:52.428Z,1816.88
2022-09-24T07:49:52.412Z,1828.12
2022-09-24T07:50:52.404Z,1828.12
2022-09-24T07:51:52.407Z,1805.62
2022-09-24T07:52:52.456Z,1811.25
2022-09-24T07:53:52.394Z,1890.00
2022-09-24T07:54:52.408Z,1912.50
2022-09-24T07:55:52.339Z,1946.25
2022-09-24T07:56:52.337Z,2025.00
2022-09-24T07:57:52.324Z,2019.38
2022-09-24T07:58:52.316Z,2030.62
2022-09-24T07:59:52.316Z,2109.38
2022-09-24T08:00:52.287Z,2171.25
2022-09-24T08:01:52.322Z,2205.00
2022-09-24T08:02:52.268Z,2233.12
2022-09-24T08:03:52.297Z,2283.75
2022-09-24T08:04:52.247Z,2283.75
2022-09-24T08:05:52.250Z,2317.50
2022-09-24T08:06:52.222Z,2323.12
2022-09-24T08:07:52.216Z,2311.88
2022-09-24T08:08:52.199Z,1755.00
2022-09-24T08:09:52.181Z,2385.00
2022-09-24T08:10:52.198Z,1254.38
2022-09-24T08:11:52.160Z,1344.38
2022-09-24T08:12:52.160Z,1783.12
2022-09-24T08:13:52.150Z,984.38
2022-09-24T08:14:52.131Z,2115.00
2022-09-24T08:15:52.182Z,2143.12
2022-09-24T08:16:52.132Z,2244.38
2022-09-24T08:17:52.099Z,1586.25
2022-09-24T08:18:52.092Z,1715.62
2022-09-24T08:19:52.072Z,1271.25
2022-09-24T08:20:52.063Z,900.00
2022-09-24T08:21:52.054Z,1063.12
2022-09-24T08:22:52.061Z,905.62
2022-09-24T08:23:52.040Z,894.38
2022-09-24T08:24:52.037Z,900.00
2022-09-24T08:25:52.011Z,933.75
2022-09-24T08:26:52.001Z,900.00
2022-09-24T08:27:51.994Z,866.25
2022-09-24T08:28:52.007Z,731.25
2022-09-24T08:29:59.009Z,652.50
2022-09-24T08:30:51.977Z,596.25
2022-09-24T08:31:51.943Z,556.88
2022-09-24T08:32:51.943Z,523.12
2022-09-24T08:33:51.933Z,483.75
2022-09-24T08:34:52.831Z,438.75
2022-09-24T08:35:51.903Z,410.62
2022-09-24T08:36:51.883Z,393.75
2022-09-24T08:37:51.873Z,388.12
2022-09-24T08:38:51.862Z,393.75
2022-09-24T08:39:51.853Z,410.62
2022-09-24T08:40:51.943Z,444.38
2022-09-24T08:41:51.826Z,466.88
2022-09-24T08:42:51.814Z,489.38
2022-09-24T08:43:51.814Z,506.25
2022-09-24T08:44:51.792Z,511.88
2022-09-24T08:45:51.783Z,500.62
2022-09-24T08:46:51.813Z,500.62
2022-09-24T08:47:51.763Z,495.00
2022-09-24T08:48:51.744Z,495.00
2022-09-24T08:49:51.734Z,489.38
2022-09-24T08:50:51.717Z,489.38
2022-09-24T08:51:51.735Z,511.88
2022-09-24T08:52:51.716Z,579.38
2022-09-24T08:53:51.717Z,686.25
2022-09-24T08:54:51.685Z,798.75
2022-09-24T08:55:51.673Z,894.38
2022-09-24T08:56:51.664Z,916.88
2022-09-24T08:57:51.696Z,871.88
2022-09-24T08:58:51.626Z,973.12
2022-09-24T08:59:51.632Z,1063.12
2022-09-24T09:00:51.607Z,860.62
2022-09-24T09:01:51.761Z,815.62
2022-09-24T09:02:51.613Z,911.25
2022-09-24T09:03:51.607Z,945.00
2022-09-24T09:04:51.565Z,1288.12
2022-09-24T09:05:51.557Z,1490.62
2022-09-24T09:06:51.544Z,1305.00
2022-09-24T09:07:51.537Z,1462.50
2022-09-24T09:09:06.190Z,2463.75
2022-09-24T09:09:52.538Z,1243.12
2022-09-24T09:10:51.498Z,1400.62
2022-09-24T09:11:51.529Z,2773.12
2022-09-24T09:12:51.477Z,2587.50
2022-09-24T09:13:51.483Z,1293.75
2022-09-24T09:14:51.459Z,1923.75
2022-09-24T09:15:51.503Z,2188.12
2022-09-24T09:16:51.430Z,1153.12
2022-09-24T09:17:51.419Z,1068.75
2022-09-24T09:18:51.410Z,950.62
2022-09-24T09:19:53.751Z,922.50
2022-09-24T09:20:51.427Z,888.75
2022-09-24T09:21:51.379Z,894.38
2022-09-24T09:22:51.364Z,883.12
2022-09-24T09:23:51.403Z,950.62
2022-09-24T09:24:51.342Z,984.38
2022-09-24T09:25:51.332Z,945.00
2022-09-24T09:26:51.342Z,928.12
2022-09-24T09:27:51.312Z,905.62
2022-09-24T09:28:51.293Z,810.00
2022-09-24T09:29:51.289Z,793.12
2022-09-24T09:30:51.354Z,781.88
2022-09-24T09:31:55.450Z,810.00
2022-09-24T09:32:52.272Z,843.75
2022-09-24T09:33:51.256Z,855.00
2022-09-24T09:34:51.234Z,759.38
2022-09-24T09:35:51.222Z,736.88
2022-09-24T09:36:51.235Z,686.25
2022-09-24T09:37:51.200Z,736.88
2022-09-24T09:38:51.345Z,742.50
2022-09-24T09:39:51.175Z,697.50
2022-09-24T09:40:51.250Z,703.12
2022-09-24T09:41:51.212Z,731.25
2022-09-24T09:42:51.133Z,742.50
2022-09-24T09:43:51.144Z,810.00
2022-09-24T09:44:51.133Z,798.75
2022-09-24T09:45:51.114Z,720.00
2022-09-24T09:46:51.123Z,663.75
2022-09-24T09:47:51.074Z,635.62
2022-09-24T09:48:51.065Z,585.00
2022-09-24T09:49:51.065Z,556.88
2022-09-24T09:50:51.067Z,551.25
2022-09-24T09:51:51.039Z,556.88
2022-09-24T09:52:51.025Z,551.25
2022-09-24T09:53:51.028Z,568.12
2022-09-24T09:54:51.001Z,528.75
2022-09-24T09:55:50.989Z,523.12
2022-09-24T09:56:50.995Z,596.25
2022-09-24T09:57:50.967Z,607.50
2022-09-24T09:58:50.956Z,585.00
2022-09-24T09:59:50.944Z,551.25
2022-09-24T10:00:50.928Z,517.50
2022-09-24T10:01:50.994Z,478.12
2022-09-24T10:02:50.975Z,478.12
2022-09-24T10:03:50.929Z,472.50
2022-09-24T10:04:52.164Z,472.50
2022-09-24T10:05:50.876Z,511.88
2022-09-24T10:06:50.866Z,523.12
2022-09-24T10:07:50.878Z,534.38
2022-09-24T10:08:50.838Z,545.62
2022-09-24T10:09:50.836Z,540.00
2022-09-24T10:10:50.817Z,534.38
2022-09-24T10:11:50.816Z,551.25
2022-09-24T10:12:50.788Z,585.00
2022-09-24T10:13:50.817Z,590.62
2022-09-24T10:14:50.779Z,663.75
2022-09-24T10:15:50.777Z,652.50
2022-09-24T10:16:50.748Z,691.88
2022-09-24T10:17:50.739Z,736.88
2022-09-24T10:18:50.726Z,765.00
2022-09-24T10:19:50.762Z,787.50
2022-09-24T10:20:50.700Z,787.50
2022-09-24T10:21:50.711Z,770.62
2022-09-24T10:22:50.680Z,748.12
2022-09-24T10:23:50.681Z,725.62
2022-09-24T10:24:50.680Z,686.25
2022-09-24T10:25:50.653Z,663.75
2022-09-24T10:26:50.632Z,579.38
2022-09-24T10:27:50.628Z,534.38
2022-09-24T10:28:50.610Z,540.00
2022-09-24T10:29:50.600Z,506.25
2022-09-24T10:30:50.671Z,489.38
2022-09-24T10:31:50.627Z,472.50
2022-09-24T10:32:50.562Z,455.62
2022-09-24T10:33:50.570Z,472.50
2022-09-24T10:34:50.542Z,500.62
2022-09-24T10:35:50.532Z,517.50
2022-09-24T10:36:50.533Z,528.75
2022-09-24T10:37:50.512Z,568.12
2022-09-24T10:38:50.505Z,624.38
2022-09-24T10:39:50.492Z,613.12
2022-09-24T10:40:50.528Z,579.38
2022-09-24T10:41:50.492Z,590.62
2022-09-24T10:42:50.467Z,579.38
2022-09-24T10:43:50.453Z,551.25
2022-09-24T10:44:52.806Z,511.88
2022-09-24T10:45:50.422Z,483.75
2022-09-24T10:46:50.517Z,455.62
2022-09-24T10:47:50.423Z,427.50
2022-09-24T10:48:50.384Z,388.12
2022-09-24T10:49:50.375Z,399.38
2022-09-24T10:50:50.363Z,360.00
2022-09-24T10:51:50.352Z,354.38
2022-09-24T10:52:50.353Z,354.38
2022-09-24T10:53:50.364Z,343.12
2022-09-24T10:54:50.313Z,337.50
2022-09-24T10:55:50.304Z,354.38
2022-09-24T10:56:50.294Z,376.88
2022-09-24T10:57:50.285Z,410.62
2022-09-24T10:58:50.275Z,416.25
2022-09-24T10:59:50.306Z,427.50
2022-09-24T11:00:50.246Z,450.00
2022-09-24T11:01:50.361Z,500.62
2022-09-24T11:02:50.291Z,534.38
2022-09-24T11:03:50.264Z,551.25
2022-09-24T11:04:50.196Z,590.62
2022-09-24T11:05:50.209Z,596.25
2022-09-24T11:06:50.175Z,601.88
2022-09-24T11:07:50.166Z,579.38
2022-09-24T11:08:50.146Z,562.50
2022-09-24T11:09:50.146Z,534.38
2022-09-24T11:10:50.155Z,500.62
2022-09-24T11:11:50.125Z,472.50
2022-09-24T11:12:50.104Z,438.75
2022-09-24T11:13:51.595Z,416.25
2022-09-24T11:14:50.078Z,405.00
2022-09-24T11:15:50.089Z,393.75
2022-09-24T11:16:50.077Z,382.50
2022-09-24T11:17:50.059Z,376.88
2022-09-24T11:18:50.037Z,365.62
2022-09-24T11:19:50.028Z,354.38
2022-09-24T11:20:50.015Z,337.50
2022-09-24T11:21:50.006Z,343.12
2022-09-24T11:22:50.008Z,343.12
2022-09-24T11:23:49.988Z,354.38
2022-09-24T11:24:49.967Z,365.62
2022-09-24T11:25:49.959Z,376.88
2022-09-24T11:26:49.949Z,393.75
2022-09-24T11:27:49.940Z,416.25
2022-09-24T11:28:49.939Z,444.38
2022-09-24T11:29:49.909Z,483.75
2022-09-24T11:30:49.953Z,506.25
2022-09-24T11:31:49.967Z,517.50
2022-09-24T11:32:49.870Z,534.38
2022-09-24T11:33:49.872Z,562.50
2022-09-24T11:34:49.881Z,590.62
2022-09-24T11:35:49.862Z,601.88
2022-09-24T11:36:49.833Z,607.50
2022-09-24T11:37:49.821Z,618.75
2022-09-24T11:38:49.811Z,641.25
2022-09-24T11:39:49.855Z,652.50
2022-09-24T11:40:49.874Z,658.12
2022-09-24T11:41:49.790Z,658.12
2022-09-24T11:42:49.770Z,663.75
2022-09-24T11:43:49.761Z,669.38
2022-09-24T11:44:49.739Z,669.38
2022-09-24T11:45:49.731Z,691.88
2022-09-24T11:46:49.826Z,658.12
2022-09-24T11:47:49.824Z,635.62
2022-09-24T11:48:49.693Z,641.25
2022-09-24T11:49:49.690Z,607.50
2022-09-24T11:50:49.673Z,613.12
2022-09-24T11:51:49.662Z,568.12
2022-09-24T11:52:49.692Z,556.88
2022-09-24T11:53:49.655Z,585.00
2022-09-24T11:54:49.631Z,551.25
2022-09-24T11:55:49.614Z,511.88
2022-09-24T11:56:49.605Z,472.50
2022-09-24T11:57:49.614Z,455.62
2022-09-24T11:58:49.582Z,444.38
2022-09-24T11:59:49.588Z,405.00
2022-09-24T12:00:49.565Z,371.25
2022-09-24T12:01:49.610Z,343.12
2022-09-24T12:02:49.596Z,326.25
2022-09-24T12:03:49.553Z,337.50
2022-09-24T12:04:49.513Z,331.88
2022-09-24T12:05:49.504Z,348.75
2022-09-24T12:06:49.485Z,360.00
2022-09-24T12:07:49.485Z,371.25
2022-09-24T12:08:49.515Z,382.50
2022-09-24T12:09:49.455Z,382.50
2022-09-24T12:10:49.446Z,388.12
2022-09-24T12:11:49.444Z,388.12
2022-09-24T12:12:49.437Z,393.75
2022-09-24T12:13:49.415Z,399.38
2022-09-24T12:14:49.426Z,410.62
2022-09-24T12:15:49.440Z,433.12
2022-09-24T12:16:49.376Z,450.00
2022-09-24T12:17:49.377Z,478.12
2022-09-24T12:18:49.356Z,478.12
2022-09-24T12:19:49.347Z,472.50
2022-09-24T12:20:49.358Z,500.62
2022-09-24T12:21:49.327Z,472.50
2022-09-24T12:22:49.309Z,438.75
2022-09-24T12:23:49.534Z,421.88
2022-09-24T12:24:49.288Z,410.62
2022-09-24T12:25:49.279Z,393.75
2022-09-24T12:26:49.288Z,371.25
2022-09-24T12:27:49.317Z,348.75
2022-09-24T12:28:49.239Z,337.50
2022-09-24T12:29:49.266Z,343.12
2022-09-24T12:30:49.272Z,354.38
2022-09-24T12:31:49.281Z,371.25
2022-09-24T12:32:49.219Z,388.12
2022-09-24T12:33:49.217Z,393.75
2022-09-24T12:34:49.190Z,416.25
2022-09-24T12:35:49.169Z,433.12
2022-09-24T12:36:52.470Z,461.25
2022-09-24T12:37:50.175Z,489.38
2022-09-24T12:38:49.132Z,511.88
2022-09-24T12:39:49.120Z,528.75
2022-09-24T12:40:49.200Z,545.62
2022-09-24T12:41:49.103Z,562.50
2022-09-24T12:42:49.080Z,551.25
2022-09-24T12:43:49.102Z,545.62
2022-09-24T12:44:49.156Z,534.38
2022-09-24T12:45:49.059Z,528.75